sensor_id;sensor_type;location;lat;lon;timestamp;temperature;humidity
7445;DHT22;3764;48.126;11.594;2024-02-26T00:02:02;4.10;99.90
7445;DHT22;3764;48.126;11.594;2024-02-26T00:04:29;4.00;99.90
7445;DHT22;3764;48.126;11.594;2024-02-26T00:06:56;4.00;99.90
7445;DHT22;3764;48.126;11.594;2024-02-26T00:09:25;4.10;99.90
7445;DHT22;3764;48.126;11.594;2024-02-26T00:11:52;4.00;99.90
7445;DHT22;3764;48.126;11.594;2024-02-26T00:14:21;4.00;99.90
7445;DHT22;3764;48.126;11.594;2024-02-26T00:16:48;4.00;99.90
7445;DHT22;3764;48.126;11.594;2024-02-26T00:19:15;4.00;99.90
7445;DHT22;3764;48.126;11.594;2024-02-26T00:21:42;4.00;99.90
7445;DHT22;3764;48.126;11.594;2024-02-26T00:24:10;4.00;99.90
7445;DHT22;3764;48.126;11.594;2024-02-26T00:26:38;4.00;99.90
7445;DHT22;3764;48.126;11.594;2024-02-26T00:29:05;4.00;99.90
7445;DHT22;3764;48.126;11.594;2024-02-26T00:31:33;4.00;99.90
7445;DHT22;3764;48.126;11.594;2024-02-26T00:34:00;4.00;99.90
7445;DHT22;3764;48.126;11.594;2024-02-26T00:36:27;4.00;99.90
7445;DHT22;3764;48.126;11.594;2024-02-26T00:38:54;4.00;99.90
7445;DHT22;3764;48.126;11.594;2024-02-26T00:41:21;4.00;99.90
7445;DHT22;3764;48.126;11.594;2024-02-26T00:43:50;4.00;99.90
7445;DHT22;3764;48.126;11.594;2024-02-26T00:46:17;4.00;99.90
7445;DHT22;3764;48.126;11.594;2024-02-26T00:48:44;4.00;99.90
7445;DHT22;3764;48.126;11.594;2024-02-26T00:51:12;4.00;99.90
7445;DHT22;3764;48.126;11.594;2024-02-26T00:53:39;4.00;99.90
7445;DHT22;3764;48.126;11.594;2024-02-26T00:56:06;4.00;99.90
7445;DHT22;3764;48.126;11.594;2024-02-26T00:58:33;4.00;99.90
7445;DHT22;3764;48.126;11.594;2024-02-26T01:01:02;4.00;99.90
7445;DHT22;3764;48.126;11.594;2024-02-26T01:03:30;4.00;99.90
7445;DHT22;3764;48.126;11.594;2024-02-26T01:05:57;3.90;99.90
7445;DHT22;3764;48.126;11.594;2024-02-26T01:08:24;3.90;99.90
7445;DHT22;3764;48.126;11.594;2024-02-26T01:10:51;3.90;99.90
7445;DHT22;3764;48.126;11.594;2024-02-26T01:13:18;3.90;99.90
7445;DHT22;3764;48.126;11.594;2024-02-26T01:15:45;3.90;99.90
7445;DHT22;3764;48.126;11.594;2024-02-26T01:18:14;3.90;99.90
7445;DHT22;3764;48.126;11.594;2024-02-26T01:20:41;3.90;99.90
7445;DHT22;3764;48.126;11.594;2024-02-26T01:23:08;3.90;99.90
7445;DHT22;3764;48.126;11.594;2024-02-26T01:25:35;3.90;99.90
7445;DHT22;3764;48.126;11.594;2024-02-26T01:28:03;3.90;99.90
7445;DHT22;3764;48.126;11.594;2024-02-26T01:30:31;3.90;99.90
7445;DHT22;3764;48.126;11.594;2024-02-26T01:32:58;3.90;99.90
7445;DHT22;3764;48.126;11.594;2024-02-26T01:35:27;3.90;99.90
7445;DHT22;3764;48.126;11.594;2024-02-26T01:37:54;3.90;99.90
7445;DHT22;3764;48.126;11.594;2024-02-26T01:40:21;3.90;99.90
7445;DHT22;3764;48.126;11.594;2024-02-26T01:42:48;3.80;99.90
7445;DHT22;3764;48.126;11.594;2024-02-26T01:45:16;3.80;99.90
7445;DHT22;3764;48.126;11.594;2024-02-26T01:47:49;3.80;99.90
7445;DHT22;3764;48.126;11.594;2024-02-26T01:50:17;3.80;99.90
7445;DHT22;3764;48.126;11.594;2024-02-26T01:52:47;3.80;99.90
7445;DHT22;3764;48.126;11.594;2024-02-26T01:55:14;3.80;99.90
7445;DHT22;3764;48.126;11.594;2024-02-26T01:57:43;3.80;99.90
7445;DHT22;3764;48.126;11.594;2024-02-26T02:00:11;3.80;99.90
7445;DHT22;3764;48.126;11.594;2024-02-26T02:02:39;3.80;99.90
7445;DHT22;3764;48.126;11.594;2024-02-26T02:05:09;3.80;99.90
7445;DHT22;3764;48.126;11.594;2024-02-26T02:07:37;3.70;99.90
7445;DHT22;3764;48.126;11.594;2024-02-26T02:10:07;3.70;99.90
7445;DHT22;3764;48.126;11.594;2024-02-26T02:12:35;3.70;99.90
7445;DHT22;3764;48.126;11.594;2024-02-26T02:15:06;3.60;99.90
7445;DHT22;3764;48.126;11.594;2024-02-26T02:17:34;3.60;99.90
7445;DHT22;3764;48.126;11.594;2024-02-26T02:20:01;3.60;99.90
7445;DHT22;3764;48.126;11.594;2024-02-26T02:22:30;3.60;99.90
7445;DHT22;3764;48.126;11.594;2024-02-26T02:24:59;3.60;99.90
7445;DHT22;3764;48.126;11.594;2024-02-26T02:27:27;3.60;99.90
7445;DHT22;3764;48.126;11.594;2024-02-26T02:29:54;3.60;99.90
7445;DHT22;3764;48.126;11.594;2024-02-26T02:32:21;3.60;99.90
7445;DHT22;3764;48.126;11.594;2024-02-26T02:34:49;3.60;99.90
7445;DHT22;3764;48.126;11.594;2024-02-26T02:37:17;3.60;99.90
7445;DHT22;3764;48.126;11.594;2024-02-26T02:39:45;3.50;99.90
7445;DHT22;3764;48.126;11.594;2024-02-26T02:42:12;3.50;99.90
7445;DHT22;3764;48.126;11.594;2024-02-26T02:44:40;3.50;99.90
7445;DHT22;3764;48.126;11.594;2024-02-26T02:47:07;3.50;99.90
7445;DHT22;3764;48.126;11.594;2024-02-26T02:49:34;3.50;99.90
7445;DHT22;3764;48.126;11.594;2024-02-26T02:52:01;3.50;99.90
7445;DHT22;3764;48.126;11.594;2024-02-26T02:54:28;3.40;99.90
7445;DHT22;3764;48.126;11.594;2024-02-26T02:56:57;3.40;99.90
7445;DHT22;3764;48.126;11.594;2024-02-26T02:59:25;3.50;99.90
7445;DHT22;3764;48.126;11.594;2024-02-26T03:01:52;3.60;99.90
7445;DHT22;3764;48.126;11.594;2024-02-26T03:04:19;3.70;99.90
7445;DHT22;3764;48.126;11.594;2024-02-26T03:06:47;3.60;99.90
7445;DHT22;3764;48.126;11.594;2024-02-26T03:09:14;3.70;99.90
7445;DHT22;3764;48.126;11.594;2024-02-26T03:11:41;3.70;99.90
7445;DHT22;3764;48.126;11.594;2024-02-26T03:14:10;3.80;99.90
7445;DHT22;3764;48.126;11.594;2024-02-26T03:16:37;3.90;99.90
7445;DHT22;3764;48.126;11.594;2024-02-26T03:19:04;4.00;99.90
7445;DHT22;3764;48.126;11.594;2024-02-26T03:21:31;4.00;99.90
7445;DHT22;3764;48.126;11.594;2024-02-26T03:23:59;3.90;99.90
7445;DHT22;3764;48.126;11.594;2024-02-26T03:26:26;3.90;99.90
7445;DHT22;3764;48.126;11.594;2024-02-26T03:28:53;3.80;99.90
7445;DHT22;3764;48.126;11.594;2024-02-26T03:31:21;3.70;99.90
7445;DHT22;3764;48.126;11.594;2024-02-26T03:33:49;3.70;99.90
7445;DHT22;3764;48.126;11.594;2024-02-26T03:36:16;3.70;99.90
7445;DHT22;3764;48.126;11.594;2024-02-26T03:38:43;3.80;99.90
7445;DHT22;3764;48.126;11.594;2024-02-26T03:41:10;3.80;99.90
7445;DHT22;3764;48.126;11.594;2024-02-26T03:43:37;3.80;99.90
7445;DHT22;3764;48.126;11.594;2024-02-26T03:46:07;3.90;99.90
7445;DHT22;3764;48.126;11.594;2024-02-26T03:48:35;4.00;99.90
7445;DHT22;3764;48.126;11.594;2024-02-26T03:51:03;4.10;99.90
7445;DHT22;3764;48.126;11.594;2024-02-26T03:53:30;4.10;99.90
7445;DHT22;3764;48.126;11.594;2024-02-26T03:55:57;4.10;99.90
7445;DHT22;3764;48.126;11.594;2024-02-26T03:58:25;4.10;99.90
7445;DHT22;3764;48.126;11.594;2024-02-26T04:00:52;4.00;99.90
7445;DHT22;3764;48.126;11.594;2024-02-26T04:03:19;4.10;99.90
7445;DHT22;3764;48.126;11.594;2024-02-26T04:05:48;4.00;99.90
7445;DHT22;3764;48.126;11.594;2024-02-26T04:08:15;3.90;99.90
7445;DHT22;3764;48.126;11.594;2024-02-26T04:10:42;3.90;99.90
7445;DHT22;3764;48.126;11.594;2024-02-26T04:13:09;3.90;99.90
7445;DHT22;3764;48.126;11.594;2024-02-26T04:15:36;3.80;99.90
7445;DHT22;3764;48.126;11.594;2024-02-26T04:18:04;3.80;99.90
7445;DHT22;3764;48.126;11.594;2024-02-26T04:20:31;3.90;99.90
7445;DHT22;3764;48.126;11.594;2024-02-26T04:23:00;3.90;99.90
7445;DHT22;3764;48.126;11.594;2024-02-26T04:25:27;3.90;99.90
7445;DHT22;3764;48.126;11.594;2024-02-26T04:27:54;3.90;99.90
7445;DHT22;3764;48.126;11.594;2024-02-26T04:30:21;3.80;99.90
7445;DHT22;3764;48.126;11.594;2024-02-26T04:32:48;3.80;99.90
7445;DHT22;3764;48.126;11.594;2024-02-26T04:35:16;3.70;99.90
7445;DHT22;3764;48.126;11.594;2024-02-26T04:37:43;3.70;99.90
7445;DHT22;3764;48.126;11.594;2024-02-26T04:40:12;3.60;99.90
7445;DHT22;3764;48.126;11.594;2024-02-26T04:42:39;3.60;99.90
7445;DHT22;3764;48.126;11.594;2024-02-26T04:45:07;3.60;99.90
7445;DHT22;3764;48.126;11.594;2024-02-26T04:47:34;3.60;99.90
7445;DHT22;3764;48.126;11.594;2024-02-26T04:50:01;3.60;99.90
7445;DHT22;3764;48.126;11.594;2024-02-26T04:52:29;3.60;99.90
7445;DHT22;3764;48.126;11.594;2024-02-26T04:54:56;3.60;99.90
7445;DHT22;3764;48.126;11.594;2024-02-26T04:57:27;3.60;99.90
7445;DHT22;3764;48.126;11.594;2024-02-26T04:59:54;3.60;99.90
7445;DHT22;3764;48.126;11.594;2024-02-26T05:02:21;3.60;99.90
7445;DHT22;3764;48.126;11.594;2024-02-26T05:04:48;3.60;99.90
7445;DHT22;3764;48.126;11.594;2024-02-26T05:07:15;3.70;99.90
7445;DHT22;3764;48.126;11.594;2024-02-26T05:09:44;3.70;99.90
7445;DHT22;3764;48.126;11.594;2024-02-26T05:12:11;3.70;99.90
7445;DHT22;3764;48.126;11.594;2024-02-26T05:14:40;3.70;99.90
7445;DHT22;3764;48.126;11.594;2024-02-26T05:17:07;3.70;99.90
7445;DHT22;3764;48.126;11.594;2024-02-26T05:19:34;3.70;99.90
7445;DHT22;3764;48.126;11.594;2024-02-26T05:22:01;3.70;99.90
7445;DHT22;3764;48.126;11.594;2024-02-26T05:24:28;3.70;99.90
7445;DHT22;3764;48.126;11.594;2024-02-26T05:26:55;3.80;99.90
7445;DHT22;3764;48.126;11.594;2024-02-26T05:29:23;3.80;99.90
7445;DHT22;3764;48.126;11.594;2024-02-26T05:31:51;3.90;99.90
7445;DHT22;3764;48.126;11.594;2024-02-26T05:34:20;4.00;99.90
7445;DHT22;3764;48.126;11.594;2024-02-26T05:36:47;4.00;99.90
7445;DHT22;3764;48.126;11.594;2024-02-26T05:39:14;4.00;99.90
7445;DHT22;3764;48.126;11.594;2024-02-26T05:41:42;4.10;99.90
7445;DHT22;3764;48.126;11.594;2024-02-26T05:44:09;4.20;99.90
7445;DHT22;3764;48.126;11.594;2024-02-26T05:46:36;4.20;99.90
7445;DHT22;3764;48.126;11.594;2024-02-26T05:49:04;4.30;99.90
7445;DHT22;3764;48.126;11.594;2024-02-26T05:51:33;4.40;99.90
7445;DHT22;3764;48.126;11.594;2024-02-26T05:54:00;4.40;99.90
7445;DHT22;3764;48.126;11.594;2024-02-26T05:56:27;4.40;99.90
7445;DHT22;3764;48.126;11.594;2024-02-26T05:58:54;4.40;99.90
7445;DHT22;3764;48.126;11.594;2024-02-26T06:01:21;4.40;99.90
7445;DHT22;3764;48.126;11.594;2024-02-26T06:03:50;4.30;99.90
7445;DHT22;3764;48.126;11.594;2024-02-26T06:06:18;4.20;99.90
7445;DHT22;3764;48.126;11.594;2024-02-26T06:08:47;4.10;99.90
7445;DHT22;3764;48.126;11.594;2024-02-26T06:11:14;4.10;99.90
7445;DHT22;3764;48.126;11.594;2024-02-26T06:13:42;4.10;99.90
7445;DHT22;3764;48.126;11.594;2024-02-26T06:16:09;4.10;99.90
7445;DHT22;3764;48.126;11.594;2024-02-26T06:18:36;4.10;99.90
7445;DHT22;3764;48.126;11.594;2024-02-26T06:21:03;4.10;99.90
7445;DHT22;3764;48.126;11.594;2024-02-26T06:23:32;4.10;99.90
7445;DHT22;3764;48.126;11.594;2024-02-26T06:25:59;4.00;99.90
7445;DHT22;3764;48.126;11.594;2024-02-26T06:28:26;4.00;99.90
7445;DHT22;3764;48.126;11.594;2024-02-26T06:30:56;4.00;99.90
7445;DHT22;3764;48.126;11.594;2024-02-26T06:33:23;4.00;99.90
7445;DHT22;3764;48.126;11.594;2024-02-26T06:35:50;4.00;99.90
7445;DHT22;3764;48.126;11.594;2024-02-26T06:38:17;4.00;99.90
7445;DHT22;3764;48.126;11.594;2024-02-26T06:40:46;4.00;99.90
7445;DHT22;3764;48.126;11.594;2024-02-26T06:43:13;4.10;99.90
7445;DHT22;3764;48.126;11.594;2024-02-26T06:45:40;4.10;99.90
7445;DHT22;3764;48.126;11.594;2024-02-26T06:48:07;4.20;99.90
7445;DHT22;3764;48.126;11.594;2024-02-26T06:50:35;4.20;99.90
7445;DHT22;3764;48.126;11.594;2024-02-26T06:53:02;4.30;99.90
7445;DHT22;3764;48.126;11.594;2024-02-26T06:55:29;4.40;99.90
7445;DHT22;3764;48.126;11.594;2024-02-26T06:57:58;4.50;99.90
7445;DHT22;3764;48.126;11.594;2024-02-26T07:00:25;4.50;99.90
7445;DHT22;3764;48.126;11.594;2024-02-26T07:02:52;4.60;99.90
7445;DHT22;3764;48.126;11.594;2024-02-26T07:05:19;4.60;99.90
7445;DHT22;3764;48.126;11.594;2024-02-26T07:07:47;4.60;99.90
7445;DHT22;3764;48.126;11.594;2024-02-26T07:10:14;4.70;99.90
7445;DHT22;3764;48.126;11.594;2024-02-26T07:12:41;4.70;99.90
7445;DHT22;3764;48.126;11.594;2024-02-26T07:15:10;4.80;99.90
7445;DHT22;3764;48.126;11.594;2024-02-26T07:17:38;4.80;99.90
7445;DHT22;3764;48.126;11.594;2024-02-26T07:20:08;4.90;99.90
7445;DHT22;3764;48.126;11.594;2024-02-26T07:22:36;5.00;99.90
7445;DHT22;3764;48.126;11.594;2024-02-26T07:25:03;5.00;99.90
7445;DHT22;3764;48.126;11.594;2024-02-26T07:27:33;5.10;99.90
7445;DHT22;3764;48.126;11.594;2024-02-26T07:30:00;5.10;99.90
7445;DHT22;3764;48.126;11.594;2024-02-26T07:32:29;5.20;99.90
7445;DHT22;3764;48.126;11.594;2024-02-26T07:34:55;5.20;99.90
7445;DHT22;3764;48.126;11.594;2024-02-26T07:37:22;5.20;99.90
7445;DHT22;3764;48.126;11.594;2024-02-26T07:39:49;5.20;99.90
7445;DHT22;3764;48.126;11.594;2024-02-26T07:42:16;5.30;99.90
7445;DHT22;3764;48.126;11.594;2024-02-26T07:44:44;5.30;99.90
7445;DHT22;3764;48.126;11.594;2024-02-26T07:47:11;5.30;99.90
7445;DHT22;3764;48.126;11.594;2024-02-26T07:49:40;5.30;99.90
7445;DHT22;3764;48.126;11.594;2024-02-26T07:52:07;5.40;99.90
7445;DHT22;3764;48.126;11.594;2024-02-26T07:54:34;5.40;99.90
7445;DHT22;3764;48.126;11.594;2024-02-26T07:57:02;5.40;99.90
7445;DHT22;3764;48.126;11.594;2024-02-26T07:59:31;5.50;99.90
7445;DHT22;3764;48.126;11.594;2024-02-26T08:01:58;5.40;99.90
7445;DHT22;3764;48.126;11.594;2024-02-26T08:04:28;5.40;99.90
7445;DHT22;3764;48.126;11.594;2024-02-26T08:06:57;5.40;99.90
7445;DHT22;3764;48.126;11.594;2024-02-26T08:09:25;5.40;99.90
7445;DHT22;3764;48.126;11.594;2024-02-26T08:11:52;5.40;99.90
7445;DHT22;3764;48.126;11.594;2024-02-26T08:14:19;5.40;99.90
7445;DHT22;3764;48.126;11.594;2024-02-26T08:16:46;5.50;99.90
7445;DHT22;3764;48.126;11.594;2024-02-26T08:19:14;5.50;99.90
7445;DHT22;3764;48.126;11.594;2024-02-26T08:21:43;5.60;99.90
7445;DHT22;3764;48.126;11.594;2024-02-26T08:24:12;5.70;99.90
7445;DHT22;3764;48.126;11.594;2024-02-26T08:26:39;5.70;99.90
7445;DHT22;3764;48.126;11.594;2024-02-26T08:29:06;5.80;99.90
7445;DHT22;3764;48.126;11.594;2024-02-26T08:31:33;5.80;99.90
7445;DHT22;3764;48.126;11.594;2024-02-26T08:34:03;5.90;99.90
7445;DHT22;3764;48.126;11.594;2024-02-26T08:36:31;5.90;99.90
7445;DHT22;3764;48.126;11.594;2024-02-26T08:38:58;5.90;99.90
7445;DHT22;3764;48.126;11.594;2024-02-26T08:41:27;6.00;99.90
7445;DHT22;3764;48.126;11.594;2024-02-26T08:43:55;6.00;99.90
7445;DHT22;3764;48.126;11.594;2024-02-26T08:46:22;6.00;99.90
7445;DHT22;3764;48.126;11.594;2024-02-26T08:48:49;6.10;99.90
7445;DHT22;3764;48.126;11.594;2024-02-26T08:51:16;6.10;99.90
7445;DHT22;3764;48.126;11.594;2024-02-26T08:53:44;6.10;99.90
7445;DHT22;3764;48.126;11.594;2024-02-26T08:56:11;6.10;99.90
7445;DHT22;3764;48.126;11.594;2024-02-26T08:58:43;6.10;99.90
7445;DHT22;3764;48.126;11.594;2024-02-26T09:01:12;6.10;99.90
7445;DHT22;3764;48.126;11.594;2024-02-26T09:03:39;6.20;99.90
7445;DHT22;3764;48.126;11.594;2024-02-26T09:06:07;6.30;99.90
7445;DHT22;3764;48.126;11.594;2024-02-26T09:08:34;6.30;99.90
7445;DHT22;3764;48.126;11.594;2024-02-26T09:11:02;6.30;99.90
7445;DHT22;3764;48.126;11.594;2024-02-26T09:13:30;6.30;99.90
7445;DHT22;3764;48.126;11.594;2024-02-26T09:15:59;6.40;99.90
7445;DHT22;3764;48.126;11.594;2024-02-26T09:18:26;6.40;99.90
7445;DHT22;3764;48.126;11.594;2024-02-26T09:20:54;6.40;99.90
7445;DHT22;3764;48.126;11.594;2024-02-26T09:23:21;6.50;99.90
7445;DHT22;3764;48.126;11.594;2024-02-26T09:25:49;6.50;99.90
7445;DHT22;3764;48.126;11.594;2024-02-26T09:28:16;6.60;99.90
7445;DHT22;3764;48.126;11.594;2024-02-26T09:30:43;6.70;99.90
7445;DHT22;3764;48.126;11.594;2024-02-26T09:33:13;6.70;99.90
7445;DHT22;3764;48.126;11.594;2024-02-26T09:35:40;6.70;99.90
7445;DHT22;3764;48.126;11.594;2024-02-26T09:38:08;6.70;99.90
7445;DHT22;3764;48.126;11.594;2024-02-26T09:40:40;6.80;99.90
7445;DHT22;3764;48.126;11.594;2024-02-26T09:43:11;6.80;99.90
7445;DHT22;3764;48.126;11.594;2024-02-26T09:45:41;6.90;99.90
7445;DHT22;3764;48.126;11.594;2024-02-26T09:48:15;6.90;99.90
7445;DHT22;3764;48.126;11.594;2024-02-26T09:50:44;7.00;99.90
7445;DHT22;3764;48.126;11.594;2024-02-26T09:53:12;7.00;99.90
7445;DHT22;3764;48.126;11.594;2024-02-26T09:55:40;7.10;99.90
7445;DHT22;3764;48.126;11.594;2024-02-26T09:58:09;7.10;99.90
7445;DHT22;3764;48.126;11.594;2024-02-26T10:00:43;7.20;99.90
7445;DHT22;3764;48.126;11.594;2024-02-26T10:03:15;7.30;99.90
7445;DHT22;3764;48.126;11.594;2024-02-26T10:05:43;7.30;99.90
7445;DHT22;3764;48.126;11.594;2024-02-26T10:08:12;7.30;99.90
7445;DHT22;3764;48.126;11.594;2024-02-26T10:10:41;7.40;99.90
7445;DHT22;3764;48.126;11.594;2024-02-26T10:13:09;7.40;99.90
7445;DHT22;3764;48.126;11.594;2024-02-26T10:15:37;7.50;99.90
7445;DHT22;3764;48.126;11.594;2024-02-26T10:18:05;7.50;99.90
7445;DHT22;3764;48.126;11.594;2024-02-26T10:20:34;7.60;99.90
7445;DHT22;3764;48.126;11.594;2024-02-26T10:23:03;7.60;99.90
7445;DHT22;3764;48.126;11.594;2024-02-26T10:25:30;7.70;99.90
7445;DHT22;3764;48.126;11.594;2024-02-26T10:28:00;7.80;99.90
7445;DHT22;3764;48.126;11.594;2024-02-26T10:30:29;7.80;99.90
7445;DHT22;3764;48.126;11.594;2024-02-26T10:32:56;7.90;99.90
7445;DHT22;3764;48.126;11.594;2024-02-26T10:35:23;7.90;99.90
7445;DHT22;3764;48.126;11.594;2024-02-26T10:37:53;8.00;99.90
7445;DHT22;3764;48.126;11.594;2024-02-26T10:40:20;8.00;99.90
7445;DHT22;3764;48.126;11.594;2024-02-26T10:42:47;8.10;99.90
7445;DHT22;3764;48.126;11.594;2024-02-26T10:45:15;8.10;99.90
7445;DHT22;3764;48.126;11.594;2024-02-26T10:47:42;8.20;99.90
7445;DHT22;3764;48.126;11.594;2024-02-26T10:50:10;8.20;99.90
7445;DHT22;3764;48.126;11.594;2024-02-26T10:52:40;8.30;99.90
7445;DHT22;3764;48.126;11.594;2024-02-26T10:55:15;8.30;99.90
7445;DHT22;3764;48.126;11.594;2024-02-26T10:57:44;8.30;99.90
7445;DHT22;3764;48.126;11.594;2024-02-26T11:00:14;8.40;99.90
7445;DHT22;3764;48.126;11.594;2024-02-26T11:02:42;8.40;99.90
7445;DHT22;3764;48.126;11.594;2024-02-26T11:05:11;8.50;99.90
7445;DHT22;3764;48.126;11.594;2024-02-26T11:07:39;8.60;99.90
7445;DHT22;3764;48.126;11.594;2024-02-26T11:10:10;8.60;99.90
7445;DHT22;3764;48.126;11.594;2024-02-26T11:12:39;8.70;99.90
7445;DHT22;3764;48.126;11.594;2024-02-26T11:15:08;8.80;99.90
7445;DHT22;3764;48.126;11.594;2024-02-26T11:17:37;8.80;99.90
7445;DHT22;3764;48.126;11.594;2024-02-26T11:20:08;8.90;99.90
7445;DHT22;3764;48.126;11.594;2024-02-26T11:22:37;9.00;99.90
7445;DHT22;3764;48.126;11.594;2024-02-26T11:25:04;9.10;99.90
7445;DHT22;3764;48.126;11.594;2024-02-26T11:27:39;9.20;99.90
7445;DHT22;3764;48.126;11.594;2024-02-26T11:30:09;9.30;99.90
7445;DHT22;3764;48.126;11.594;2024-02-26T11:32:38;9.40;99.90
7445;DHT22;3764;48.126;11.594;2024-02-26T11:35:06;9.50;99.90
7445;DHT22;3764;48.126;11.594;2024-02-26T11:37:36;9.70;99.90
7445;DHT22;3764;48.126;11.594;2024-02-26T11:40:04;9.90;99.90
7445;DHT22;3764;48.126;11.594;2024-02-26T11:42:33;10.10;99.90
7445;DHT22;3764;48.126;11.594;2024-02-26T11:45:01;10.40;99.90
7445;DHT22;3764;48.126;11.594;2024-02-26T11:47:28;10.50;99.90
7445;DHT22;3764;48.126;11.594;2024-02-26T11:49:55;10.60;99.90
7445;DHT22;3764;48.126;11.594;2024-02-26T11:52:22;10.70;99.90
7445;DHT22;3764;48.126;11.594;2024-02-26T11:54:50;10.80;99.90
7445;DHT22;3764;48.126;11.594;2024-02-26T11:57:23;10.80;99.90
7445;DHT22;3764;48.126;11.594;2024-02-26T11:59:51;10.90;99.90
7445;DHT22;3764;48.126;11.594;2024-02-26T12:02:40;11.00;99.90
7445;DHT22;3764;48.126;11.594;2024-02-26T12:05:10;11.20;99.90
7445;DHT22;3764;48.126;11.594;2024-02-26T12:07:40;11.40;99.90
7445;DHT22;3764;48.126;11.594;2024-02-26T12:10:17;11.60;99.90
7445;DHT22;3764;48.126;11.594;2024-02-26T12:12:47;11.70;99.90
7445;DHT22;3764;48.126;11.594;2024-02-26T12:15:17;11.90;99.90
7445;DHT22;3764;48.126;11.594;2024-02-26T12:17:48;12.00;99.90
7445;DHT22;3764;48.126;11.594;2024-02-26T12:20:17;12.10;99.50
7445;DHT22;3764;48.126;11.594;2024-02-26T12:22:46;12.10;99.40
7445;DHT22;3764;48.126;11.594;2024-02-26T12:25:14;12.10;98.30
7445;DHT22;3764;48.126;11.594;2024-02-26T12:27:41;12.10;98.40
7445;DHT22;3764;48.126;11.594;2024-02-26T12:30:09;12.10;98.30
7445;DHT22;3764;48.126;11.594;2024-02-26T12:32:38;12.10;98.90
7445;DHT22;3764;48.126;11.594;2024-02-26T12:35:06;12.20;99.20
7445;DHT22;3764;48.126;11.594;2024-02-26T12:37:34;12.40;98.80
7445;DHT22;3764;48.126;11.594;2024-02-26T12:40:04;12.50;97.90
7445;DHT22;3764;48.126;11.594;2024-02-26T12:42:33;12.60;97.90
7445;DHT22;3764;48.126;11.594;2024-02-26T12:45:06;12.70;97.70
7445;DHT22;3764;48.126;11.594;2024-02-26T12:47:40;12.70;98.10
7445;DHT22;3764;48.126;11.594;2024-02-26T12:50:08;12.70;97.30
7445;DHT22;3764;48.126;11.594;2024-02-26T12:52:39;12.70;97.80
7445;DHT22;3764;48.126;11.594;2024-02-26T12:55:07;12.60;98.00
7445;DHT22;3764;48.126;11.594;2024-02-26T12:57:36;12.60;97.80
7445;DHT22;3764;48.126;11.594;2024-02-26T13:00:05;12.60;97.80
7445;DHT22;3764;48.126;11.594;2024-02-26T13:02:35;12.70;99.60
7445;DHT22;3764;48.126;11.594;2024-02-26T13:05:06;12.70;99.30
7445;DHT22;3764;48.126;11.594;2024-02-26T13:07:35;12.90;99.90
7445;DHT22;3764;48.126;11.594;2024-02-26T13:10:08;13.00;99.80
7445;DHT22;3764;48.126;11.594;2024-02-26T13:12:37;13.10;99.10
7445;DHT22;3764;48.126;11.594;2024-02-26T13:15:05;13.10;99.60
7445;DHT22;3764;48.126;11.594;2024-02-26T13:17:33;13.20;99.50
7445;DHT22;3764;48.126;11.594;2024-02-26T13:20:00;13.20;99.50
7445;DHT22;3764;48.126;11.594;2024-02-26T13:22:29;13.20;99.90
7445;DHT22;3764;48.126;11.594;2024-02-26T13:24:59;13.20;99.90
7445;DHT22;3764;48.126;11.594;2024-02-26T13:27:29;13.30;99.40
7445;DHT22;3764;48.126;11.594;2024-02-26T13:30:04;13.30;99.50
7445;DHT22;3764;48.126;11.594;2024-02-26T13:32:33;13.40;98.40
7445;DHT22;3764;48.126;11.594;2024-02-26T13:35:05;13.40;98.20
7445;DHT22;3764;48.126;11.594;2024-02-26T13:37:34;13.30;99.20
7445;DHT22;3764;48.126;11.594;2024-02-26T13:40:05;13.40;99.90
7445;DHT22;3764;48.126;11.594;2024-02-26T13:42:33;13.30;99.90
7445;DHT22;3764;48.126;11.594;2024-02-26T13:45:00;13.30;99.90
7445;DHT22;3764;48.126;11.594;2024-02-26T13:47:27;13.20;99.40
7445;DHT22;3764;48.126;11.594;2024-02-26T13:49:54;13.10;98.80
7445;DHT22;3764;48.126;11.594;2024-02-26T13:52:22;13.10;99.00
7445;DHT22;3764;48.126;11.594;2024-02-26T13:54:51;13.10;99.50
7445;DHT22;3764;48.126;11.594;2024-02-26T13:57:19;13.00;99.40
7445;DHT22;3764;48.126;11.594;2024-02-26T13:59:46;12.90;98.90
7445;DHT22;3764;48.126;11.594;2024-02-26T14:02:13;12.90;98.10
7445;DHT22;3764;48.126;11.594;2024-02-26T14:04:40;12.80;98.30
7445;DHT22;3764;48.126;11.594;2024-02-26T14:07:08;12.80;98.40
7445;DHT22;3764;48.126;11.594;2024-02-26T14:09:37;12.70;98.50
7445;DHT22;3764;48.126;11.594;2024-02-26T14:12:06;12.60;98.10
7445;DHT22;3764;48.126;11.594;2024-02-26T14:14:33;12.50;98.60
7445;DHT22;3764;48.126;11.594;2024-02-26T14:17:04;12.50;98.80
7445;DHT22;3764;48.126;11.594;2024-02-26T14:19:31;12.40;98.80
7445;DHT22;3764;48.126;11.594;2024-02-26T14:21:58;12.40;99.80
7445;DHT22;3764;48.126;11.594;2024-02-26T14:24:25;12.30;99.10
7445;DHT22;3764;48.126;11.594;2024-02-26T14:26:53;12.20;99.40
7445;DHT22;3764;48.126;11.594;2024-02-26T14:29:22;12.10;99.40
7445;DHT22;3764;48.126;11.594;2024-02-26T14:31:49;12.00;99.60
7445;DHT22;3764;48.126;11.594;2024-02-26T14:34:16;12.00;99.90
7445;DHT22;3764;48.126;11.594;2024-02-26T14:36:44;11.90;99.90
7445;DHT22;3764;48.126;11.594;2024-02-26T14:39:12;11.80;99.90
7445;DHT22;3764;48.126;11.594;2024-02-26T14:41:40;11.80;99.90
7445;DHT22;3764;48.126;11.594;2024-02-26T14:44:07;11.70;99.90
7445;DHT22;3764;48.126;11.594;2024-02-26T14:46:36;11.70;99.90
7445;DHT22;3764;48.126;11.594;2024-02-26T14:49:04;11.70;99.90
7445;DHT22;3764;48.126;11.594;2024-02-26T14:51:31;11.60;99.90
7445;DHT22;3764;48.126;11.594;2024-02-26T14:53:58;11.60;99.90
7445;DHT22;3764;48.126;11.594;2024-02-26T14:56:27;11.60;99.90
7445;DHT22;3764;48.126;11.594;2024-02-26T14:58:55;11.50;99.90
7445;DHT22;3764;48.126;11.594;2024-02-26T15:01:23;11.40;99.90
7445;DHT22;3764;48.126;11.594;2024-02-26T15:03:52;11.40;99.90
7445;DHT22;3764;48.126;11.594;2024-02-26T15:06:19;11.40;99.90
7445;DHT22;3764;48.126;11.594;2024-02-26T15:08:47;11.40;99.90
7445;DHT22;3764;48.126;11.594;2024-02-26T15:11:14;11.30;99.90
7445;DHT22;3764;48.126;11.594;2024-02-26T15:13:42;11.30;99.90
7445;DHT22;3764;48.126;11.594;2024-02-26T15:16:16;11.30;99.90
7445;DHT22;3764;48.126;11.594;2024-02-26T15:18:43;11.20;99.90
7445;DHT22;3764;48.126;11.594;2024-02-26T15:21:12;11.10;99.90
7445;DHT22;3764;48.126;11.594;2024-02-26T15:23:39;11.00;99.90
7445;DHT22;3764;48.126;11.594;2024-02-26T15:26:06;11.00;99.90
7445;DHT22;3764;48.126;11.594;2024-02-26T15:28:33;11.00;99.90
7445;DHT22;3764;48.126;11.594;2024-02-26T15:31:00;11.00;99.90
7445;DHT22;3764;48.126;11.594;2024-02-26T15:33:28;10.90;99.90
7445;DHT22;3764;48.126;11.594;2024-02-26T15:35:55;10.80;99.90
7445;DHT22;3764;48.126;11.594;2024-02-26T15:38:24;10.90;99.90
7445;DHT22;3764;48.126;11.594;2024-02-26T15:40:51;10.80;99.90
7445;DHT22;3764;48.126;11.594;2024-02-26T15:43:18;10.90;99.90
7445;DHT22;3764;48.126;11.594;2024-02-26T15:45:47;10.90;99.90
7445;DHT22;3764;48.126;11.594;2024-02-26T15:48:14;10.90;99.90
7445;DHT22;3764;48.126;11.594;2024-02-26T15:50:43;10.90;99.90
7445;DHT22;3764;48.126;11.594;2024-02-26T15:53:10;10.80;99.90
7445;DHT22;3764;48.126;11.594;2024-02-26T15:55:38;10.80;99.90
7445;DHT22;3764;48.126;11.594;2024-02-26T15:58:08;10.80;99.90
7445;DHT22;3764;48.126;11.594;2024-02-26T16:00:39;10.80;99.90
7445;DHT22;3764;48.126;11.594;2024-02-26T16:03:07;10.80;99.90